Time;durP1;ratioP1;P1;durP2;ratioP2;P2;SDS_P1;SDS_P2;PMS_P1;PMS_P2;Temp;Humidity;BMP_temperature;BMP_pressure;BME280_temperature;BME280_humidity;BME280_pressure;Samples;Min_cycle;Max_cycle;Signal;HPM_P1;HPM_P2
2021/07/23 00:00:47;;;;;;;10.48;9.43;;;;;;;23.56;54.89;95732.22;5034974;28;20224;-84
2021/07/23 00:03:13;;;;;;;12.73;9.82;;;;;;;23.46;55.59;95728.72;5036011;28;20222;-84
2021/07/23 00:05:40;;;;;;;10.15;9.32;;;;;;;23.46;55.46;95726.09;5035694;28;20205;-85
2021/07/23 00:08:08;;;;;;;9.68;8.85;;;;;;;23.29;56.96;95726.22;5035124;28;20640;-84
2021/07/23 00:10:35;;;;;;;11.70;10.07;;;;;;;23.28;55.90;95730.72;5035722;28;20213;-85
2021/07/23 00:13:01;;;;;;;10.98;9.93;;;;;;;23.22;56.55;95731.72;5035427;28;20250;-84
2021/07/23 00:15:28;;;;;;;11.23;10.15;;;;;;;23.16;56.81;95724.06;5035350;28;20216;-85
2021/07/23 00:17:55;;;;;;;11.65;10.45;;;;;;;23.08;57.48;95718.25;5035783;28;20294;-84
2021/07/23 00:20:21;;;;;;;11.23;9.43;;;;;;;23.00;58.12;95715.28;5035951;28;20206;-85
2021/07/23 00:22:48;;;;;;;11.75;10.75;;;;;;;22.82;58.05;95715.66;5035981;28;20320;-84
2021/07/23 00:25:16;;;;;;;11.50;10.50;;;;;;;22.75;59.14;95713.97;5036515;28;20457;-84
2021/07/23 00:27:43;;;;;;;11.57;10.23;;;;;;;22.69;59.43;95711.59;5036179;28;20275;-85
2021/07/23 00:30:13;;;;;;;11.68;10.68;;;;;;;22.60;59.55;95711.22;5035976;28;20222;-87
2021/07/23 00:32:42;;;;;;;12.02;10.70;;;;;;;22.64;59.54;95711.53;5035735;28;20258;-86
2021/07/23 00:35:10;;;;;;;11.90;10.80;;;;;;;22.62;60.18;95703.91;5036420;28;20233;-85
2021/07/23 00:37:36;;;;;;;11.93;10.82;;;;;;;22.55;60.07;95705.13;5036310;28;20261;-86
2021/07/23 00:40:03;;;;;;;12.63;11.40;;;;;;;22.28;61.81;95703.31;5036028;28;20206;-84
2021/07/23 00:42:40;;;;;;;12.52;11.35;;;;;;;22.26;62.49;95712.47;5035647;28;20226;-86
2021/07/23 00:45:08;;;;;;;11.57;10.35;;;;;;;22.34;61.19;95706.75;5036013;28;20222;-85
2021/07/23 00:47:36;;;;;;;11.40;10.40;;;;;;;22.32;62.03;95709.63;5035657;28;20209;-85
2021/07/23 00:50:03;;;;;;;11.82;10.73;;;;;;;22.40;61.29;95700.53;5036036;28;20225;-86
2021/07/23 00:52:29;;;;;;;12.30;11.00;;;;;;;22.25;62.54;95708.25;5035824;28;20222;-85
2021/07/23 00:54:57;;;;;;;12.05;10.85;;;;;;;22.06;63.15;95699.94;5036117;28;20210;-84
2021/07/23 00:57:24;;;;;;;14.10;11.15;;;;;;;22.12;62.56;95706.03;5035432;28;20209;-85
2021/07/23 00:59:54;;;;;;;12.27;11.10;;;;;;;22.16;62.10;95702.63;5034890;28;20202;-84
2021/07/23 01:02:21;;;;;;;12.38;11.07;;;;;;;22.19;62.44;95698.75;5035177;28;20249;-84
2021/07/23 01:04:48;;;;;;;12.27;11.00;;;;;;;22.18;62.05;95695.31;5035815;28;20221;-84
2021/07/23 01:07:14;;;;;;;12.57;10.73;;;;;;;22.26;62.72;95691.47;5035335;28;20688;-86
2021/07/23 01:09:41;;;;;;;13.18;11.75;;;;;;;22.13;63.57;95690.00;5035619;28;20312;-87
2021/07/23 01:12:09;;;;;;;12.27;11.18;;;;;;;22.12;63.10;95688.47;5035302;28;20214;-83
2021/07/23 01:14:37;;;;;;;12.50;11.23;;;;;;;22.11;63.41;95691.31;5034921;28;20248;-85
2021/07/23 01:17:05;;;;;;;12.45;11.25;;;;;;;22.19;62.78;95699.53;5034222;28;20213;-86
2021/07/23 01:19:38;;;;;;;12.90;10.82;;;;;;;22.22;63.06;95693.81;5035769;28;20202;-85
2021/07/23 01:22:07;;;;;;;11.43;10.38;;;;;;;22.28;62.36;95684.94;5035068;28;20222;-85
2021/07/23 01:24:36;;;;;;;12.23;10.88;;;;;;;22.28;62.42;95694.66;5034978;28;20205;-85
2021/07/23 01:27:03;;;;;;;12.95;10.80;;;;;;;22.24;62.00;95680.44;5035113;28;20198;-85
2021/07/23 01:29:30;;;;;;;11.93;10.65;;;;;;;22.25;61.60;95690.69;5034938;28;20253;-85
2021/07/23 01:31:56;;;;;;;12.32;11.15;;;;;;;22.19;62.20;95683.78;5035457;28;20202;-84
2021/07/23 01:34:23;;;;;;;11.52;10.45;;;;;;;22.14;62.13;95688.19;5035671;28;20208;-85
2021/07/23 01:36:49;;;;;;;11.75;10.63;;;;;;;22.13;62.61;95690.00;5035176;28;20206;-86
2021/07/23 01:39:18;;;;;;;13.25;10.65;;;;;;;22.08;62.85;95681.31;5037923;28;20198;-86
2021/07/23 01:41:45;;;;;;;12.02;10.88;;;;;;;22.02;62.56;95683.88;5038683;28;20206;-86
2021/07/23 01:44:12;;;;;;;12.07;10.88;;;;;;;22.05;62.28;95690.47;5039002;28;20221;-85
2021/07/23 01:46:38;;;;;;;12.52;11.38;;;;;;;21.81;64.50;95686.47;5039820;28;20201;-84
2021/07/23 01:49:05;;;;;;;12.80;11.60;;;;;;;21.67;64.08;95681.63;5039624;28;20240;-86
2021/07/23 01:51:32;;;;;;;12.30;11.10;;;;;;;21.69;64.48;95690.03;5037964;28;20264;-86
2021/07/23 01:53:58;;;;;;;12.60;11.50;;;;;;;21.74;64.29;95678.03;5038213;28;20229;-86
2021/07/23 01:56:25;;;;;;;12.32;11.05;;;;;;;21.73;64.77;95681.69;5038012;28;20202;-85
2021/07/23 01:58:53;;;;;;;12.27;11.18;;;;;;;21.68;64.56;95683.19;5037480;28;20194;-85
2021/07/23 02:01:20;;;;;;;11.95;10.85;;;;;;;21.63;64.94;95675.25;5038090;28;20202;-86
2021/07/23 02:03:46;;;;;;;12.23;10.60;;;;;;;21.71;64.66;95674.06;5037257;28;20222;-84
2021/07/23 02:06:13;;;;;;;12.80;11.02;;;;;;;21.79;64.44;95673.63;5036748;28;20202;-85
2021/07/23 02:08:39;;;;;;;11.60;10.52;;;;;;;21.73;65.09;95674.63;5037303;28;20285;-86
2021/07/23 02:11:06;;;;;;;29.08;11.13;;;;;;;21.52;65.59;95667.53;5036618;28;20202;-85
2021/07/23 02:13:33;;;;;;;12.40;10.98;;;;;;;21.37;66.30;95678.56;5036897;28;20218;-86
2021/07/23 02:16:03;;;;;;;12.52;11.32;;;;;;;21.31;66.73;95675.13;5037538;28;20873;-86
2021/07/23 02:18:30;;;;;;;11.30;10.20;;;;;;;21.42;65.98;95676.03;5037218;28;20206;-86
2021/07/23 02:20:56;;;;;;;11.68;10.55;;;;;;;21.50;66.41;95682.69;5037572;28;20202;-85
2021/07/23 02:23:23;;;;;;;11.73;10.50;;;;;;;21.63;65.61;95682.34;5037148;28;20226;-86
2021/07/23 02:25:49;;;;;;;13.50;12.20;;;;;;;21.65;65.46;95683.69;5037390;28;20205;-85
2021/07/23 02:28:15;;;;;;;13.70;12.40;;;;;;;21.60;65.70;95682.81;5037828;28;20198;-86
2021/07/23 02:30:42;;;;;;;13.73;12.43;;;;;;;21.58;65.66;95677.03;5038340;28;20222;-85
2021/07/23 02:33:10;;;;;;;12.80;11.55;;;;;;;21.65;65.29;95683.69;5037561;28;20289;-86
2021/07/23 02:35:36;;;;;;;12.75;11.63;;;;;;;21.65;65.60;95675.81;5037714;28;20290;-85
2021/07/23 02:38:04;;;;;;;12.80;11.60;;;;;;;21.65;65.49;95681.06;5035524;28;20225;-85
2021/07/23 02:40:30;;;;;;;13.48;11.60;;;;;;;21.65;64.87;95678.44;5036052;28;20201;-84
2021/07/23 02:42:57;;;;;;;12.48;11.27;;;;;;;21.59;65.50;95671.53;5036553;28;20228;-84
2021/07/23 02:45:23;;;;;;;12.07;10.88;;;;;;;21.52;65.48;95673.56;5036293;28;20210;-83
2021/07/23 02:47:51;;;;;;;11.25;10.13;;;;;;;21.43;66.40;95684.69;5035945;28;20202;-83
2021/07/23 02:50:20;;;;;;;12.02;10.85;;;;;;;21.38;66.19;95678.34;5036355;28;20228;-86
2021/07/23 02:52:46;;;;;;;11.75;10.55;;;;;;;21.43;66.15;95682.88;5035626;28;20224;-85
2021/07/23 02:55:13;;;;;;;11.65;10.65;;;;;;;21.44;66.24;95683.66;5036198;28;20194;-85
2021/07/23 02:57:39;;;;;;;11.65;10.45;;;;;;;21.44;65.36;95675.78;5035613;28;20539;-85
2021/07/23 03:00:07;;;;;;;11.32;10.23;;;;;;;21.33;65.75;95680.91;5035521;28;20194;-86
2021/07/23 03:02:35;;;;;;;12.18;10.98;;;;;;;21.40;65.30;95679.94;5029897;28;20309;-85
2021/07/23 03:05:01;;;;;;;11.52;10.32;;;;;;;21.43;64.94;95682.06;5030514;28;20202;-85
2021/07/23 03:07:29;;;;;;;12.13;10.93;;;;;;;21.41;65.30;95679.69;5030666;28;20202;-85
2021/07/23 03:09:56;;;;;;;11.35;10.35;;;;;;;21.39;64.75;95679.13;5031325;28;20222;-85
2021/07/23 03:12:22;;;;;;;11.50;10.40;;;;;;;21.43;64.50;95672.38;5031126;28;20225;-85
2021/07/23 03:14:49;;;;;;;10.90;9.90;;;;;;;21.41;65.19;95665.78;5031930;28;20198;-86
2021/07/23 03:17:15;;;;;;;11.02;9.93;;;;;;;21.40;64.85;95674.69;5031649;28;20561;-85
2021/07/23 03:19:41;;;;;;;12.35;11.05;;;;;;;21.42;64.30;95665.56;5032489;28;20206;-85
2021/07/23 03:22:08;;;;;;;11.48;10.27;;;;;;;21.37;64.54;95670.72;5032495;28;20237;-85
2021/07/23 03:24:36;;;;;;;13.02;10.02;;;;;;;21.31;64.58;95663.84;5035600;28;20206;-85
2021/07/23 03:27:03;;;;;;;11.75;10.65;;;;;;;21.25;65.19;95662.97;5039636;28;20195;-85
2021/07/23 03:29:29;;;;;;;12.18;10.98;;;;;;;21.20;65.14;95670.75;5041434;28;20218;-85
2021/07/23 03:31:56;;;;;;;11.43;10.15;;;;;;;21.22;65.54;95665.28;5043523;28;20204;-85
2021/07/23 03:34:22;;;;;;;11.25;10.15;;;;;;;21.26;65.30;95666.38;5044519;28;20194;-84
2021/07/23 03:36:49;;;;;;;13.70;10.93;;;;;;;21.27;65.47;95670.59;5043276;28;20203;-83
2021/07/23 03:39:15;;;;;;;11.00;9.88;;;;;;;21.29;65.03;95666.72;5043856;28;20191;-83
2021/07/23 03:41:43;;;;;;;11.80;10.60;;;;;;;21.20;65.66;95669.97;5045413;28;20212;-83
2021/07/23 03:44:09;;;;;;;11.48;10.30;;;;;;;21.25;65.50;95667.41;5047339;28;20251;-85
2021/07/23 03:46:36;;;;;;;11.20;10.20;;;;;;;21.30;65.37;95664.88;5046670;28;20209;-86
2021/07/23 03:49:03;;;;;;;12.00;10.77;;;;;;;21.26;64.99;95666.38;5047662;28;20233;-86
2021/07/23 03:51:29;;;;;;;11.40;10.30;;;;;;;21.24;65.09;95664.00;5046267;28;20213;-86
2021/07/23 03:53:56;;;;;;;14.40;10.95;;;;;;;21.27;64.55;95658.28;5044526;28;20233;-85
2021/07/23 03:56:22;;;;;;;11.15;9.70;;;;;;;21.31;64.30;95658.59;5046329;28;20237;-85
2021/07/23 03:58:51;;;;;;;10.65;9.55;;;;;;;21.37;64.56;95662.88;5046920;28;20198;-85
2021/07/23 04:01:18;;;;;;;10.45;9.45;;;;;;;21.29;64.75;95660.69;5046962;28;20274;-86
2021/07/23 04:03:44;;;;;;;12.13;10.93;;;;;;;21.26;65.32;95667.19;5044644;28;20214;-86
2021/07/23 04:06:11;;;;;;;13.43;10.05;;;;;;;21.26;65.10;95659.31;5041325;28;20213;-87
2021/07/23 04:08:39;;;;;;;12.38;10.00;;;;;;;21.24;64.84;95656.16;5041527;28;20239;-83
2021/07/23 04:11:05;;;;;;;11.13;10.02;;;;;;;21.29;64.68;95653.59;5040753;28;20222;-83
2021/07/23 04:13:32;;;;;;;11.07;9.95;;;;;;;21.28;64.98;95656.47;5042187;28;20222;-85
2021/07/23 04:16:00;;;;;;;10.98;9.95;;;;;;;21.36;64.88;95656.03;5041661;28;20216;-86
2021/07/23 04:18:26;;;;;;;11.15;9.98;;;;;;;21.39;64.46;95660.78;5041723;28;20208;-86
2021/07/23 04:20:53;;;;;;;12.43;10.27;;;;;;;21.31;64.85;95666.47;5040963;28;20208;-86
2021/07/23 04:23:19;;;;;;;11.50;9.43;;;;;;;21.31;64.73;95663.84;5041131;28;20218;-86
2021/07/23 04:25:46;;;;;;;11.88;10.18;;;;;;;21.33;64.93;95664.41;5041302;28;20202;-86
2021/07/23 04:28:13;;;;;;;11.27;10.13;;;;;;;21.27;65.60;95674.00;5040827;28;20202;-86
2021/07/23 04:30:58;;;;;;;11.00;9.88;;;;;;;21.31;64.96;95671.72;5040510;28;20272;-85
2021/07/23 04:33:26;;;;;;;11.40;9.73;;;;;;;21.25;64.47;95676.06;5038252;28;20276;-85
2021/07/23 04:35:52;;;;;;;10.68;9.65;;;;;;;21.29;64.27;95671.16;5037947;28;20210;-86
2021/07/23 04:38:19;;;;;;;11.02;9.85;;;;;;;21.21;64.74;95667.09;5038128;28;20202;-86
2021/07/23 04:40:45;;;;;;;16.52;10.18;;;;;;;21.20;64.74;95673.38;5037764;28;20199;-86
2021/07/23 04:43:12;;;;;;;11.02;9.93;;;;;;;21.23;64.17;95675.53;5038308;28;20221;-86
2021/07/23 04:45:38;;;;;;;12.10;9.73;;;;;;;21.18;64.29;95675.41;5038362;28;20213;-86
2021/07/23 04:48:05;;;;;;;12.82;10.00;;;;;;;21.20;64.45;95669.97;5037716;28;20769;-85
2021/07/23 04:50:33;;;;;;;12.13;10.07;;;;;;;21.21;64.00;95671.56;5038257;28;20232;-85
2021/07/23 04:52:59;;;;;;;11.10;9.98;;;;;;;21.23;64.03;95669.50;5036714;28;20218;-85
2021/07/23 04:55:26;;;;;;;11.05;9.95;;;;;;;21.22;64.41;95673.13;5039042;28;20661;-85
2021/07/23 04:57:52;;;;;;;11.23;9.88;;;;;;;21.28;64.06;95680.03;5038123;28;20206;-86
2021/07/23 05:00:19;;;;;;;21.50;19.25;;;;;;;21.32;64.24;95675.91;5039304;28;20205;-85
2021/07/23 05:02:56;;;;;;;19.10;17.08;;;;;;;21.35;64.31;95676.22;5037852;28;20313;-85
2021/07/23 05:05:23;;;;;;;12.90;11.50;;;;;;;21.35;63.80;95667.56;5038358;28;20229;-83
2021/07/23 05:07:52;;;;;;;11.02;10.00;;;;;;;21.29;64.60;95668.53;5037881;28;20610;-85
2021/07/23 05:10:18;;;;;;;14.75;10.25;;;;;;;21.29;64.45;95673.78;5038335;28;20225;-84
2021/07/23 05:12:45;;;;;;;12.50;10.18;;;;;;;21.27;64.81;95671.38;5037077;28;20232;-82
2021/07/23 05:15:12;;;;;;;11.60;10.50;;;;;;;21.29;64.62;95663.28;5037671;28;20206;-84
2021/07/23 05:17:39;;;;;;;11.68;10.45;;;;;;;21.30;64.86;95673.53;5037430;28;20233;-84
2021/07/23 05:20:08;;;;;;;14.43;10.93;;;;;;;21.38;64.33;95669.69;5038902;28;20206;-84
2021/07/23 05:22:36;;;;;;;11.63;10.38;;;;;;;21.44;64.43;95665.31;5039551;28;20218;-86
2021/07/23 05:25:05;;;;;;;12.15;10.77;;;;;;;21.54;64.14;95674.13;5041526;28;20204;-86
2021/07/23 05:27:31;;;;;;;11.38;10.00;;;;;;;21.62;63.97;95683.38;5041476;28;20278;-85
2021/07/23 05:29:59;;;;;;;11.95;10.70;;;;;;;21.67;63.72;95680.81;5040197;28;20285;-84
2021/07/23 05:32:26;;;;;;;12.32;10.73;;;;;;;21.72;63.74;95678.25;5040729;28;20217;-86
2021/07/23 05:34:52;;;;;;;12.20;10.68;;;;;;;21.78;63.55;95673.84;5041469;28;20201;-85
2021/07/23 05:37:19;;;;;;;12.23;11.02;;;;;;;21.85;64.29;95685.75;5040523;28;20704;-86
2021/07/23 05:39:45;;;;;;;13.68;11.00;;;;;;;21.90;64.24;95675.34;5039611;28;20199;-86
2021/07/23 05:42:13;;;;;;;11.18;9.98;;;;;;;22.01;63.59;95679.69;5037717;28;20218;-86
2021/07/23 05:44:39;;;;;;;19.02;12.25;;;;;;;22.10;63.62;95677.41;5042728;28;20611;-86
2021/07/23 05:47:06;;;;;;;14.65;11.32;;;;;;;22.11;63.97;95673.75;5042032;28;20212;-86
2021/07/23 05:49:32;;;;;;;16.13;12.02;;;;;;;22.17;64.00;95671.97;5042288;28;20205;-86
2021/07/23 05:51:59;;;;;;;17.40;11.63;;;;;;;22.25;64.17;95679.41;5041881;28;20249;-87
2021/07/23 05:54:27;;;;;;;16.27;11.57;;;;;;;22.30;64.06;95679.47;5042592;28;20229;-86
2021/07/23 05:56:54;;;;;;;16.08;11.43;;;;;;;22.33;64.24;95677.09;5041869;28;20206;-86
2021/07/23 05:59:22;;;;;;;17.55;11.48;;;;;;;22.35;64.34;95682.13;5039186;28;20201;-86
2021/07/23 06:01:48;;;;;;;16.60;11.07;;;;;;;22.31;65.27;95681.03;5034611;28;20225;-87
2021/07/23 06:04:14;;;;;;;14.48;11.80;;;;;;;22.29;65.15;95688.38;5039263;28;20204;-87
2021/07/23 06:06:41;;;;;;;13.88;11.35;;;;;;;22.32;65.85;95685.25;5036130;28;20214;-86
2021/07/23 06:09:09;;;;;;;12.68;11.32;;;;;;;22.36;65.34;95681.88;5036813;28;20202;-86
2021/07/23 06:11:39;;;;;;;13.73;11.73;;;;;;;22.35;65.25;95685.53;5036636;28;20242;-86
2021/07/23 06:14:05;;;;;;;14.80;11.38;;;;;;;22.32;65.61;95685.25;5036473;28;20228;-87
2021/07/23 06:16:33;;;;;;;12.98;11.68;;;;;;;22.16;67.42;95691.34;5036809;28;20210;-87
2021/07/23 06:19:02;;;;;;;16.98;11.40;;;;;;;22.25;66.11;95688.06;5037483;28;20206;-87
2021/07/23 06:21:28;;;;;;;13.10;11.70;;;;;;;22.31;65.69;95691.53;5036457;28;20203;-87
2021/07/23 06:23:57;;;;;;;14.02;11.40;;;;;;;22.35;65.86;95687.34;5037167;28;20221;-86
2021/07/23 06:26:23;;;;;;;13.13;11.75;;;;;;;22.38;65.96;95690.28;5036771;28;20198;-87
2021/07/23 06:28:50;;;;;;;12.82;11.20;;;;;;;22.48;66.02;95692.22;5037123;28;20198;-87
2021/07/23 06:31:16;;;;;;;12.45;11.15;;;;;;;22.54;65.39;95690.41;5036731;28;20218;-86
2021/07/23 06:33:44;;;;;;;14.15;11.80;;;;;;;22.61;65.79;95689.19;5036534;28;20218;-86
2021/07/23 06:36:10;;;;;;;12.38;11.20;;;;;;;22.67;66.01;95688.22;5037100;28;20574;-87
2021/07/23 06:38:37;;;;;;;12.10;10.85;;;;;;;22.57;66.26;95687.31;5036765;28;20233;-86
2021/07/23 06:41:05;;;;;;;12.90;11.55;;;;;;;22.49;67.50;95685.94;5036082;28;20201;-86
2021/07/23 06:43:32;;;;;;;15.48;11.95;;;;;;;22.59;67.00;95690.47;5035422;28;20612;-87
2021/07/23 06:45:59;;;;;;;13.27;11.65;;;;;;;22.72;66.55;95685.59;5035387;28;20205;-86
2021/07/23 06:48:26;;;;;;;14.90;12.73;;;;;;;22.84;65.81;95687.31;5034349;28;20195;-86
2021/07/23 06:50:54;;;;;;;13.35;11.95;;;;;;;23.00;65.38;95689.00;5034543;28;20226;-86
2021/07/23 06:53:20;;;;;;;13.35;12.00;;;;;;;23.12;65.26;95689.59;5035413;28;20234;-87
2021/07/23 06:55:47;;;;;;;14.02;12.27;;;;;;;23.19;65.08;95692.81;5035772;28;20202;-86
2021/07/23 06:58:14;;;;;;;13.23;11.95;;;;;;;23.30;64.13;95693.66;5034677;28;20195;-86
2021/07/23 07:00:40;;;;;;;13.98;12.32;;;;;;;23.33;64.67;95688.69;5035023;28;20213;-86
2021/07/23 07:03:07;;;;;;;13.00;11.70;;;;;;;23.39;65.12;95692.16;5034752;28;20308;-86
2021/07/23 07:05:33;;;;;;;13.20;11.90;;;;;;;23.47;64.05;95691.69;5033843;28;20213;-87
2021/07/23 07:08:01;;;;;;;13.27;11.95;;;;;;;23.53;62.49;95689.88;5033736;28;20194;-86
2021/07/23 07:10:28;;;;;;;15.13;12.10;;;;;;;23.63;62.36;95684.69;5034391;28;20226;-86
2021/07/23 07:12:56;;;;;;;14.63;12.18;;;;;;;23.67;61.99;95689.16;5033555;28;20222;-86
2021/07/23 07:15:23;;;;;;;13.20;12.00;;;;;;;23.74;61.42;95684.47;5034255;28;20206;-86
2021/07/23 07:17:49;;;;;;;13.52;12.23;;;;;;;23.72;62.10;95681.31;5037413;28;20209;-87
2021/07/23 07:20:16;;;;;;;13.45;12.07;;;;;;;23.83;62.03;95682.16;5037779;28;20206;-86
2021/07/23 07:22:45;;;;;;;13.27;12.05;;;;;;;23.86;62.51;95681.63;5038031;28;20283;-86
2021/07/23 07:25:14;;;;;;;13.15;11.85;;;;;;;23.89;62.77;95681.09;5039099;28;20194;-86
2021/07/23 07:27:40;;;;;;;13.00;11.70;;;;;;;23.89;61.94;95683.75;5038210;28;20197;-86
2021/07/23 07:30:07;;;;;;;13.35;12.05;;;;;;;23.97;61.88;95674.56;5037712;28;20194;-86
2021/07/23 07:32:34;;;;;;;13.13;11.82;;;;;;;23.90;61.61;95676.63;5038240;28;20264;-86
2021/07/23 07:35:00;;;;;;;13.30;11.82;;;;;;;23.94;61.26;95672.44;5038781;28;20209;-86
2021/07/23 07:37:27;;;;;;;13.25;11.95;;;;;;;24.09;61.13;95677.75;5038493;28;20260;-86
2021/07/23 07:39:53;;;;;;;13.95;11.75;;;;;;;24.22;60.69;95682.53;5037363;28;20583;-86
2021/07/23 07:42:21;;;;;;;13.15;11.85;;;;;;;24.22;60.47;95671.22;5037277;28;20214;-87
2021/07/23 07:44:48;;;;;;;12.25;10.95;;;;;;;24.39;60.28;95669.97;5038566;28;20284;-85
2021/07/23 07:47:15;;;;;;;14.45;11.35;;;;;;;24.56;59.92;95677.63;5038133;28;20292;-85
2021/07/23 07:49:42;;;;;;;11.98;10.88;;;;;;;24.64;59.25;95678.94;5036858;28;20293;-86
2021/07/23 07:52:09;;;;;;;13.43;12.20;;;;;;;24.70;58.35;95668.16;5037351;28;20237;-85
2021/07/23 07:54:35;;;;;;;12.25;10.93;;;;;;;24.76;59.44;95667.09;5038344;28;20214;-86
2021/07/23 07:57:06;;;;;;;13.93;11.15;;;;;;;24.76;59.32;95674.22;5037920;28;20302;-86
2021/07/23 07:59:34;;;;;;;13.50;12.27;;;;;;;24.81;57.45;95668.16;5037847;28;20256;-86
2021/07/23 08:02:01;;;;;;;12.88;11.57;;;;;;;24.81;58.08;95671.59;5036767;28;20281;-86
2021/07/23 08:04:29;;;;;;;15.50;11.63;;;;;;;24.77;56.73;95668.69;5037159;28;20198;-86
2021/07/23 08:06:55;;;;;;;13.73;11.43;;;;;;;24.79;56.86;95671.06;5037629;28;20201;-86
2021/07/23 08:09:22;;;;;;;13.43;11.68;;;;;;;24.88;56.90;95669.47;5038431;28;20734;-86
2021/07/23 08:11:48;;;;;;;12.05;10.57;;;;;;;25.09;56.80;95662.34;5036236;28;20300;-86
2021/07/23 08:14:15;;;;;;;12.40;11.13;;;;;;;25.27;55.57;95668.91;5036618;28;20236;-86
2021/07/23 08:16:43;;;;;;;12.93;11.50;;;;;;;25.33;55.53;95663.38;5036923;28;20576;-86
2021/07/23 08:19:10;;;;;;;13.32;10.38;;;;;;;25.47;55.23;95663.59;5035794;28;20202;-86
2021/07/23 08:21:37;;;;;;;12.43;11.23;;;;;;;25.59;54.92;95661.47;5034789;28;20198;-86
2021/07/23 08:24:04;;;;;;;12.40;11.20;;;;;;;25.71;53.93;95656.69;5035339;28;20237;-86
2021/07/23 08:26:31;;;;;;;11.75;10.55;;;;;;;25.79;53.90;95658.75;5035418;28;20206;-86
2021/07/23 08:28:58;;;;;;;12.43;11.10;;;;;;;25.93;53.31;95655.56;5035190;28;20206;-86
2021/07/23 08:31:27;;;;;;;16.20;12.35;;;;;;;25.81;51.63;95654.00;5035164;28;20217;-86
2021/07/23 08:33:56;;;;;;;13.45;11.48;;;;;;;25.86;51.43;95647.91;5035567;28;20226;-86
2021/07/23 08:36:22;;;;;;;12.60;11.02;;;;;;;25.99;52.30;95651.81;5036045;28;20562;-85
2021/07/23 08:38:49;;;;;;;12.32;10.05;;;;;;;26.07;51.08;95651.25;5035702;28;20677;-86
2021/07/23 08:41:15;;;;;;;12.30;10.65;;;;;;;26.27;50.62;95652.97;5034808;28;20270;-85
2021/07/23 08:43:45;;;;;;;12.20;11.00;;;;;;;26.43;50.34;95651.84;5034182;28;20713;-86
2021/07/23 08:46:14;;;;;;;11.85;10.75;;;;;;;26.42;49.72;95653.69;5034166;28;20202;-86
2021/07/23 08:48:40;;;;;;;12.82;11.63;;;;;;;26.17;49.26;95647.78;5034731;28;20265;-86
2021/07/23 08:51:11;;;;;;;17.92;11.65;;;;;;;26.15;48.97;95648.06;5034004;28;20593;-85
2021/07/23 08:53:37;;;;;;;12.20;10.90;;;;;;;26.19;49.98;95651.69;5033984;28;20860;-86
2021/07/23 08:56:04;;;;;;;12.40;11.20;;;;;;;26.38;49.23;95649.22;5033997;28;20204;-86
2021/07/23 08:58:31;;;;;;;12.40;11.20;;;;;;;26.63;48.25;95645.63;5033595;28;20202;-85
2021/07/23 09:00:58;;;;;;;11.93;10.82;;;;;;;26.79;46.96;95647.88;5034331;28;20209;-86
2021/07/23 09:03:28;;;;;;;11.68;9.48;;;;;;;26.87;44.79;95643.06;5033530;28;20601;-86
2021/07/23 09:05:55;;;;;;;11.27;9.48;;;;;;;27.08;45.84;95645.28;5034647;28;20209;-86
2021/07/23 09:08:23;;;;;;;11.02;9.27;;;;;;;26.99;44.12;95649.56;5034351;28;20289;-85
2021/07/23 09:11:03;;;;;;;10.30;9.30;;;;;;;27.12;43.45;95645.50;5033347;28;20210;-86
2021/07/23 09:13:30;;;;;;;11.02;9.50;;;;;;;27.15;42.99;95642.28;5035211;28;20226;-85
2021/07/23 09:15:58;;;;;;;9.43;8.43;;;;;;;27.33;44.12;95646.06;5033142;28;20206;-86
2021/07/23 09:18:35;;;;;;;10.60;9.40;;;;;;;27.49;43.65;95640.34;5033028;28;20209;-86
2021/07/23 09:21:07;;;;;;;11.18;10.00;;;;;;;27.64;43.72;95642.06;5033492;28;20632;-86
2021/07/23 09:23:37;;;;;;;10.65;9.73;;;;;;;27.65;42.97;95646.28;5032617;28;20222;-86
2021/07/23 09:26:16;;;;;;;11.57;10.32;;;;;;;27.75;43.10;95643.50;5033044;28;20248;-86
2021/07/23 09:28:45;;;;;;;11.52;10.18;;;;;;;27.79;43.66;95639.22;5032513;28;20306;-86
2021/07/23 09:31:20;;;;;;;11.93;10.48;;;;;;;27.87;43.63;95635.16;5032060;28;20640;-85
2021/07/23 09:33:52;;;;;;;11.38;10.38;;;;;;;27.82;43.03;95635.22;5032712;28;20679;-86
2021/07/23 09:36:19;;;;;;;10.50;9.60;;;;;;;27.94;43.79;95634.81;5032784;28;20196;-85
2021/07/23 09:38:53;;;;;;;11.05;10.02;;;;;;;28.22;44.14;95631.28;5033068;28;20308;-86
2021/07/23 09:41:28;;;;;;;12.55;10.02;;;;;;;28.50;44.20;95625.00;5033904;28;20638;-86
2021/07/23 09:44:07;;;;;;;11.77;10.68;;;;;;;28.72;42.97;95619.09;5032391;28;20284;-86
2021/07/23 09:46:35;;;;;;;11.35;10.35;;;;;;;28.91;42.07;95618.28;5032531;28;20209;-86
2021/07/23 09:49:22;;;;;;;11.48;10.23;;;;;;;28.94;41.97;95613.19;5032149;28;20713;-86
2021/07/23 09:51:49;;;;;;;11.27;10.27;;;;;;;28.93;42.03;95608.97;5031760;28;20229;-86
2021/07/23 09:54:20;;;;;;;11.60;10.52;;;;;;;28.94;42.01;95604.47;5031906;28;20217;-86
2021/07/23 09:56:50;;;;;;;11.20;10.18;;;;;;;29.10;41.17;95609.19;5032275;28;20206;-86
2021/07/23 09:59:22;;;;;;;11.70;10.60;;;;;;;29.21;40.14;95605.28;5032114;28;20209;-86
2021/07/23 10:01:54;;;;;;;11.57;10.48;;;;;;;29.30;41.16;95602.72;5032383;28;20260;-86
2021/07/23 10:04:24;;;;;;;11.57;10.45;;;;;;;29.39;41.28;95603.66;5031534;28;20194;-86
2021/07/23 10:07:04;;;;;;;11.38;10.40;;;;;;;29.33;39.69;95602.13;5031465;28;20225;-86
2021/07/23 10:09:36;;;;;;;11.75;10.70;;;;;;;29.36;40.32;95601.56;5031775;28;20259;-86
2021/07/23 10:12:03;;;;;;;13.25;10.45;;;;;;;29.32;41.32;95602.44;5031357;28;20229;-86
2021/07/23 10:14:37;;;;;;;11.13;10.20;;;;;;;29.03;42.04;95598.22;5031618;28;20264;-86
2021/07/23 10:17:05;;;;;;;11.70;10.63;;;;;;;28.88;41.81;95590.50;5031035;28;20198;-86
2021/07/23 10:19:32;;;;;;;10.75;9.85;;;;;;;28.96;41.30;95591.69;5031666;28;20210;-86
2021/07/23 10:22:06;;;;;;;11.23;10.23;;;;;;;29.04;40.12;95588.38;5031244;28;20205;-86
2021/07/23 10:24:37;;;;;;;11.82;10.20;;;;;;;29.12;41.04;95596.44;5031846;28;20218;-86
2021/07/23 10:27:11;;;;;;;9.98;9.05;;;;;;;29.43;41.50;95585.28;5032189;28;20206;-86
2021/07/23 10:29:49;;;;;;;11.32;10.23;;;;;;;29.68;39.98;95582.09;5031245;28;20201;-86
2021/07/23 10:32:36;;;;;;;11.02;10.02;;;;;;;29.85;39.15;95576.94;5030749;28;20260;-86
2021/07/23 10:35:33;;;;;;;12.27;10.85;;;;;;;30.03;38.85;95579.78;5031272;28;20202;-86
2021/07/23 10:38:02;;;;;;;11.00;10.10;;;;;;;29.56;40.16;95573.88;5030955;28;20292;-86
2021/07/23 10:40:36;;;;;;;11.18;10.18;;;;;;;29.57;41.04;95579.97;5030511;28;20288;-86
2021/07/23 10:43:03;;;;;;;11.23;10.30;;;;;;;29.78;40.65;95571.28;5031242;28;20300;-86
2021/07/23 10:45:42;;;;;;;11.30;10.18;;;;;;;29.49;40.02;95568.16;5030615;28;20676;-86
2021/07/23 10:48:33;;;;;;;11.55;10.38;;;;;;;29.17;39.35;95564.53;5030545;28;20213;-88
2021/07/23 10:50:59;;;;;;;11.38;10.38;;;;;;;29.55;39.79;95564.34;5032319;28;20202;-87
2021/07/23 10:53:36;;;;;;;11.50;10.23;;;;;;;29.44;40.36;95558.44;5034579;28;20229;-86
2021/07/23 10:56:06;;;;;;;11.27;10.18;;;;;;;29.31;39.69;95555.75;5034892;28;20198;-86
2021/07/23 10:58:34;;;;;;;10.77;9.70;;;;;;;28.93;42.24;95561.25;5035090;28;20210;-86
2021/07/23 11:01:02;;;;;;;12.43;9.70;;;;;;;28.89;42.19;95552.31;5035276;28;20210;-86
2021/07/23 11:03:48;;;;;;;10.88;9.90;;;;;;;29.23;41.33;95553.81;5034501;28;20226;-86
2021/07/23 11:06:16;;;;;;;11.30;10.32;;;;;;;29.34;41.59;95550.66;5034811;28;20194;-86
2021/07/23 11:08:50;;;;;;;10.88;9.82;;;;;;;29.41;40.70;95552.97;5034885;28;20218;-86
2021/07/23 11:11:22;;;;;;;11.33;9.60;;;;;;;29.34;39.46;95547.22;5034185;28;20224;-86
2021/07/23 11:13:48;;;;;;;10.65;9.75;;;;;;;28.98;39.77;95539.16;5034032;28;20853;-86
2021/07/23 11:16:16;;;;;;;10.93;9.90;;;;;;;28.67;40.51;95538.91;5034402;28;20206;-86
2021/07/23 11:18:56;;;;;;;10.88;9.88;;;;;;;28.40;40.41;95543.06;5034276;28;20208;-86
2021/07/23 11:21:25;;;;;;;10.50;9.50;;;;;;;28.35;41.03;95543.16;5033629;28;20281;-86
2021/07/23 11:23:51;;;;;;;10.00;9.10;;;;;;;28.70;41.54;95533.78;5033761;28;20625;-87